Terminal Aerodrome Forecast
Issued by NWS

Home | Current Version | Previous Version | Text Only | Print | Product List | Glossary On
Versions: 1 2 3 4 5 6 7 8 9 10 11 12 13 14 15 16
000
FTUS45 KRIW 301720
TAFWRL
TAF
KWRL 301720Z 3018/0118 VRB08KT P6SM VCSH BKN020
     FM302000 VRB09KT P6SM VCSH BKN040
     FM010100 VRB05KT P6SM SCT026 BKN040
     FM011700 VRB05KT P6SM SCT040=

USA.gov is the U.S. government's official web portal to all federal, state and local government web resources and services.